Portada
METAR-TAF:

METAR-TAF

Aeropuertos :

Ponta Delgada, Azores, Portugal

Aeropuerto Juan Pablo II

latitud: 37-44N, longitud: 025-42W, altitud: 71 m

Observación

El informe se hizo hace 25 minutos, a las 04:00 UTC
Viento 14 kt del noreste, variando entre norte y este-noreste
Temperatura 13°C
Humedad 72%
Presión 1021 hPa
Visibilidad 10 km o más
Nubes dispersas a una altura de 2000 ft

METAR: LPPD 280400Z 04014KT 010V070 9999 SCT020 13/08 Q1021

Hora: 04:25 (04:25 UTC)

Pronóstico

El informe se hizo hace 5 horas y 25 minutos, a las 23:00 UTC
Pronóstico válido del 28 a las 00 UTC al 28 a las 24 UTC
Viento 15 kt del noreste
Visibilidad 10 km o más
Nubes dispersas a una altura de 2500 ft
Evolucionando progresivamente
del 28 a las 15 UTC al 28 a las 18 UTC
Viento 12 kt del norte

TAF: LPPD 272300Z 2800/2824 04015KT 9999 SCT025 BECMG 2815/2818 36012KT

Observaciones y pronósticos meteorológicos de más de 4000 aeropuertos (mensajes METAR y TAF).

Los puntos amarillos y rojos representan las estaciones disponibles.

Ponga el ratón en el punto deseado para ver el nombre de la estación.

Haga clic para ver las observaciones y los pronósticos meteorológicos.

Para cambiar el mapa : haga clic en los botones verdes con una cruz de color negro para hacer un zoom, en el botón verde con un guión para alejar o en las flechas verdes para mapas adyacentes.


METAR-TAF: